Terminal Aerodrome Forecast
Issued by NWS

Home | Current Version | Previous Version | Text Only | Print | Product List | Glossary On
Versions: 1 2 3 4 5 6 7 8 9 10 11 12 13 14 15 16 17 18 19 20 21 22 23 24
046
FTUS42 KCAE 110942 AAA
TAFDNL
TAF AMD
KDNL 110942Z 1110/1206 VRB05KT P6SM SCT035 BKN045
     FM111200 05006KT P6SM BKN035
     FM111700 05006KT P6SM SCT020 OVC030
     FM120000 VRB04KT P6SM VCSH SCT010 BKN025 WS020/16030KT=

USA.gov is the U.S. government's official web portal to all federal, state and local government web resources and services.